sensor_id;sensor_type;location;lat;lon;timestamp;P1;durP1;ratioP1;P2;durP2;ratioP2
5867;SDS011;2960;49.142;7.768;2023-03-16T00:00:40;7.70;;;2.00;;
5867;SDS011;2960;49.142;7.768;2023-03-16T00:03:09;7.43;;;2.00;;
5867;SDS011;2960;49.142;7.768;2023-03-16T00:05:43;8.67;;;1.90;;
5867;SDS011;2960;49.142;7.768;2023-03-16T00:08:11;8.07;;;2.10;;
5867;SDS011;2960;49.142;7.768;2023-03-16T00:10:39;8.03;;;2.20;;
5867;SDS011;2960;49.142;7.768;2023-03-16T00:13:11;11.00;;;2.00;;
5867;SDS011;2960;49.142;7.768;2023-03-16T00:15:39;9.23;;;2.00;;
5867;SDS011;2960;49.142;7.768;2023-03-16T00:18:06;8.63;;;2.20;;
5867;SDS011;2960;49.142;7.768;2023-03-16T00:20:35;8.60;;;2.20;;
5867;SDS011;2960;49.142;7.768;2023-03-16T00:23:02;9.27;;;2.40;;
5867;SDS011;2960;49.142;7.768;2023-03-16T00:25:29;8.37;;;2.37;;
5867;SDS011;2960;49.142;7.768;2023-03-16T00:27:58;10.10;;;2.67;;
5867;SDS011;2960;49.142;7.768;2023-03-16T00:30:27;10.50;;;2.90;;
5867;SDS011;2960;49.142;7.768;2023-03-16T00:32:55;7.90;;;2.10;;
5867;SDS011;2960;49.142;7.768;2023-03-16T00:35:22;9.50;;;2.30;;
5867;SDS011;2960;49.142;7.768;2023-03-16T00:37:51;8.57;;;2.30;;
5867;SDS011;2960;49.142;7.768;2023-03-16T00:40:21;7.80;;;2.00;;
5867;SDS011;2960;49.142;7.768;2023-03-16T00:42:48;9.10;;;2.40;;
5867;SDS011;2960;49.142;7.768;2023-03-16T00:45:15;8.07;;;2.40;;
5867;SDS011;2960;49.142;7.768;2023-03-16T00:47:43;9.00;;;2.27;;
5867;SDS011;2960;49.142;7.768;2023-03-16T00:50:10;7.60;;;2.20;;
5867;SDS011;2960;49.142;7.768;2023-03-16T00:52:37;8.00;;;2.30;;
5867;SDS011;2960;49.142;7.768;2023-03-16T00:55:07;7.60;;;2.10;;
5867;SDS011;2960;49.142;7.768;2023-03-16T00:57:35;9.00;;;2.10;;
5867;SDS011;2960;49.142;7.768;2023-03-16T01:00:02;7.77;;;2.07;;
5867;SDS011;2960;49.142;7.768;2023-03-16T01:02:38;7.80;;;2.13;;
5867;SDS011;2960;49.142;7.768;2023-03-16T01:05:06;7.83;;;2.53;;
5867;SDS011;2960;49.142;7.768;2023-03-16T01:07:34;8.37;;;2.60;;
5867;SDS011;2960;49.142;7.768;2023-03-16T01:10:01;8.10;;;2.30;;
5867;SDS011;2960;49.142;7.768;2023-03-16T01:12:31;7.23;;;2.23;;
5867;SDS011;2960;49.142;7.768;2023-03-16T01:14:58;7.77;;;2.43;;
5867;SDS011;2960;49.142;7.768;2023-03-16T01:17:25;8.50;;;2.70;;
5867;SDS011;2960;49.142;7.768;2023-03-16T01:19:52;7.70;;;2.40;;
5867;SDS011;2960;49.142;7.768;2023-03-16T01:22:20;8.70;;;2.57;;
5867;SDS011;2960;49.142;7.768;2023-03-16T01:24:47;8.23;;;2.13;;
5867;SDS011;2960;49.142;7.768;2023-03-16T01:27:14;8.90;;;2.50;;
5867;SDS011;2960;49.142;7.768;2023-03-16T01:29:43;8.17;;;2.30;;
5867;SDS011;2960;49.142;7.768;2023-03-16T01:32:10;8.97;;;2.53;;
5867;SDS011;2960;49.142;7.768;2023-03-16T01:34:38;7.60;;;2.50;;
5867;SDS011;2960;49.142;7.768;2023-03-16T01:37:05;7.83;;;2.43;;
5867;SDS011;2960;49.142;7.768;2023-03-16T01:39:33;8.00;;;2.10;;
5867;SDS011;2960;49.142;7.768;2023-03-16T01:42:00;11.13;;;2.30;;
5867;SDS011;2960;49.142;7.768;2023-03-16T01:44:27;8.33;;;2.13;;
5867;SDS011;2960;49.142;7.768;2023-03-16T01:47:00;9.40;;;2.60;;
5867;SDS011;2960;49.142;7.768;2023-03-16T01:49:31;7.70;;;2.20;;
5867;SDS011;2960;49.142;7.768;2023-03-16T01:52:02;7.30;;;2.07;;
5867;SDS011;2960;49.142;7.768;2023-03-16T01:54:34;7.80;;;2.50;;
5867;SDS011;2960;49.142;7.768;2023-03-16T01:57:07;7.73;;;2.30;;
5867;SDS011;2960;49.142;7.768;2023-03-16T01:59:38;7.87;;;2.40;;
5867;SDS011;2960;49.142;7.768;2023-03-16T02:02:10;7.70;;;2.37;;
5867;SDS011;2960;49.142;7.768;2023-03-16T02:04:43;7.60;;;2.20;;
5867;SDS011;2960;49.142;7.768;2023-03-16T02:07:16;7.63;;;2.30;;
5867;SDS011;2960;49.142;7.768;2023-03-16T02:09:45;7.90;;;2.50;;
5867;SDS011;2960;49.142;7.768;2023-03-16T02:12:16;8.63;;;2.20;;
5867;SDS011;2960;49.142;7.768;2023-03-16T02:14:44;7.30;;;1.90;;
5867;SDS011;2960;49.142;7.768;2023-03-16T02:17:14;7.90;;;2.23;;
5867;SDS011;2960;49.142;7.768;2023-03-16T02:19:46;8.27;;;2.20;;
5867;SDS011;2960;49.142;7.768;2023-03-16T02:22:22;7.73;;;1.83;;
5867;SDS011;2960;49.142;7.768;2023-03-16T02:24:49;7.97;;;2.20;;
5867;SDS011;2960;49.142;7.768;2023-03-16T02:27:18;7.60;;;2.20;;
5867;SDS011;2960;49.142;7.768;2023-03-16T02:29:59;8.53;;;2.20;;
5867;SDS011;2960;49.142;7.768;2023-03-16T02:32:32;8.53;;;2.27;;
5867;SDS011;2960;49.142;7.768;2023-03-16T02:35:00;7.50;;;1.80;;
5867;SDS011;2960;49.142;7.768;2023-03-16T02:37:29;7.60;;;2.00;;
5867;SDS011;2960;49.142;7.768;2023-03-16T02:39:58;7.50;;;2.20;;
5867;SDS011;2960;49.142;7.768;2023-03-16T02:42:26;7.43;;;2.33;;
5867;SDS011;2960;49.142;7.768;2023-03-16T02:44:56;7.13;;;2.10;;
5867;SDS011;2960;49.142;7.768;2023-03-16T02:47:27;7.80;;;2.03;;
5867;SDS011;2960;49.142;7.768;2023-03-16T02:50:01;7.40;;;1.90;;
5867;SDS011;2960;49.142;7.768;2023-03-16T02:52:30;7.77;;;2.30;;
5867;SDS011;2960;49.142;7.768;2023-03-16T02:54:59;7.70;;;2.00;;
5867;SDS011;2960;49.142;7.768;2023-03-16T02:57:26;7.63;;;2.40;;
5867;SDS011;2960;49.142;7.768;2023-03-16T02:59:53;7.80;;;2.10;;
5867;SDS011;2960;49.142;7.768;2023-03-16T03:02:21;7.17;;;2.10;;
5867;SDS011;2960;49.142;7.768;2023-03-16T03:04:49;7.17;;;2.00;;
5867;SDS011;2960;49.142;7.768;2023-03-16T03:07:19;7.63;;;2.33;;
5867;SDS011;2960;49.142;7.768;2023-03-16T03:09:56;8.00;;;2.30;;
5867;SDS011;2960;49.142;7.768;2023-03-16T03:12:23;8.23;;;2.37;;
5867;SDS011;2960;49.142;7.768;2023-03-16T03:14:50;7.50;;;2.13;;
5867;SDS011;2960;49.142;7.768;2023-03-16T03:17:17;7.40;;;2.10;;
5867;SDS011;2960;49.142;7.768;2023-03-16T03:19:46;8.20;;;2.20;;
5867;SDS011;2960;49.142;7.768;2023-03-16T03:22:13;8.07;;;2.20;;
5867;SDS011;2960;49.142;7.768;2023-03-16T03:24:42;7.20;;;1.80;;
5867;SDS011;2960;49.142;7.768;2023-03-16T03:27:10;8.80;;;2.00;;
5867;SDS011;2960;49.142;7.768;2023-03-16T03:29:39;8.10;;;2.30;;
5867;SDS011;2960;49.142;7.768;2023-03-16T03:32:07;7.40;;;1.80;;
5867;SDS011;2960;49.142;7.768;2023-03-16T03:34:34;7.90;;;2.13;;
5867;SDS011;2960;49.142;7.768;2023-03-16T03:37:03;7.77;;;2.17;;
5867;SDS011;2960;49.142;7.768;2023-03-16T03:39:31;7.57;;;2.07;;
5867;SDS011;2960;49.142;7.768;2023-03-16T03:41:58;10.50;;;2.10;;
5867;SDS011;2960;49.142;7.768;2023-03-16T03:44:27;7.87;;;2.20;;
5867;SDS011;2960;49.142;7.768;2023-03-16T03:46:56;7.30;;;2.10;;
5867;SDS011;2960;49.142;7.768;2023-03-16T03:49:23;7.10;;;2.03;;
5867;SDS011;2960;49.142;7.768;2023-03-16T03:51:51;7.23;;;2.03;;
5867;SDS011;2960;49.142;7.768;2023-03-16T03:54:19;7.10;;;2.07;;
5867;SDS011;2960;49.142;7.768;2023-03-16T03:56:46;7.33;;;1.80;;
5867;SDS011;2960;49.142;7.768;2023-03-16T03:59:13;7.20;;;1.83;;
5867;SDS011;2960;49.142;7.768;2023-03-16T04:01:40;7.40;;;2.03;;
5867;SDS011;2960;49.142;7.768;2023-03-16T04:04:07;7.80;;;1.93;;
5867;SDS011;2960;49.142;7.768;2023-03-16T04:06:35;8.57;;;2.10;;
5867;SDS011;2960;49.142;7.768;2023-03-16T04:09:02;7.77;;;2.17;;
5867;SDS011;2960;49.142;7.768;2023-03-16T04:11:30;7.53;;;2.17;;
5867;SDS011;2960;49.142;7.768;2023-03-16T04:13:58;7.87;;;2.10;;
5867;SDS011;2960;49.142;7.768;2023-03-16T04:16:25;7.67;;;2.20;;
5867;SDS011;2960;49.142;7.768;2023-03-16T04:18:52;8.00;;;2.20;;
5867;SDS011;2960;49.142;7.768;2023-03-16T04:21:19;8.10;;;1.90;;
5867;SDS011;2960;49.142;7.768;2023-03-16T04:23:48;7.27;;;1.93;;
5867;SDS011;2960;49.142;7.768;2023-03-16T04:26:18;7.23;;;2.00;;
5867;SDS011;2960;49.142;7.768;2023-03-16T04:28:47;7.73;;;2.00;;
5867;SDS011;2960;49.142;7.768;2023-03-16T04:31:14;7.20;;;1.77;;
5867;SDS011;2960;49.142;7.768;2023-03-16T04:33:41;7.20;;;1.87;;
5867;SDS011;2960;49.142;7.768;2023-03-16T04:36:08;7.17;;;1.80;;
5867;SDS011;2960;49.142;7.768;2023-03-16T04:38:36;7.23;;;2.00;;
5867;SDS011;2960;49.142;7.768;2023-03-16T04:41:04;7.50;;;2.00;;
5867;SDS011;2960;49.142;7.768;2023-03-16T04:43:31;7.20;;;1.90;;
5867;SDS011;2960;49.142;7.768;2023-03-16T04:46:02;8.23;;;1.90;;
5867;SDS011;2960;49.142;7.768;2023-03-16T04:48:32;7.60;;;2.20;;
5867;SDS011;2960;49.142;7.768;2023-03-16T04:50:59;8.00;;;1.93;;
5867;SDS011;2960;49.142;7.768;2023-03-16T04:53:27;7.80;;;2.10;;
5867;SDS011;2960;49.142;7.768;2023-03-16T04:55:55;7.30;;;1.90;;
5867;SDS011;2960;49.142;7.768;2023-03-16T04:58:23;7.43;;;2.03;;
5867;SDS011;2960;49.142;7.768;2023-03-16T05:00:50;6.87;;;1.57;;
5867;SDS011;2960;49.142;7.768;2023-03-16T05:03:19;7.50;;;1.97;;
5867;SDS011;2960;49.142;7.768;2023-03-16T05:05:47;7.30;;;1.90;;
5867;SDS011;2960;49.142;7.768;2023-03-16T05:08:14;7.47;;;2.00;;
5867;SDS011;2960;49.142;7.768;2023-03-16T05:10:42;7.50;;;2.13;;
5867;SDS011;2960;49.142;7.768;2023-03-16T05:13:12;7.50;;;2.00;;
5867;SDS011;2960;49.142;7.768;2023-03-16T05:15:39;7.40;;;2.10;;
5867;SDS011;2960;49.142;7.768;2023-03-16T05:18:06;7.90;;;2.40;;
5867;SDS011;2960;49.142;7.768;2023-03-16T05:20:34;7.20;;;2.00;;
5867;SDS011;2960;49.142;7.768;2023-03-16T05:23:01;7.57;;;2.00;;
5867;SDS011;2960;49.142;7.768;2023-03-16T05:25:28;7.10;;;1.80;;
5867;SDS011;2960;49.142;7.768;2023-03-16T05:27:56;7.23;;;2.03;;
5867;SDS011;2960;49.142;7.768;2023-03-16T05:30:23;7.40;;;1.80;;
5867;SDS011;2960;49.142;7.768;2023-03-16T05:32:50;7.53;;;1.83;;
5867;SDS011;2960;49.142;7.768;2023-03-16T05:35:18;8.57;;;2.30;;
5867;SDS011;2960;49.142;7.768;2023-03-16T05:37:47;7.37;;;2.00;;
5867;SDS011;2960;49.142;7.768;2023-03-16T05:40:14;7.40;;;2.07;;
5867;SDS011;2960;49.142;7.768;2023-03-16T05:42:43;7.40;;;2.10;;
5867;SDS011;2960;49.142;7.768;2023-03-16T05:45:11;7.50;;;2.13;;
5867;SDS011;2960;49.142;7.768;2023-03-16T05:47:40;8.03;;;2.13;;
5867;SDS011;2960;49.142;7.768;2023-03-16T05:50:09;6.77;;;1.60;;
5867;SDS011;2960;49.142;7.768;2023-03-16T05:52:38;7.60;;;2.00;;
5867;SDS011;2960;49.142;7.768;2023-03-16T05:55:10;7.77;;;2.03;;
5867;SDS011;2960;49.142;7.768;2023-03-16T05:57:39;7.37;;;1.93;;
5867;SDS011;2960;49.142;7.768;2023-03-16T06:00:08;7.47;;;2.10;;
5867;SDS011;2960;49.142;7.768;2023-03-16T06:02:39;7.10;;;1.90;;
5867;SDS011;2960;49.142;7.768;2023-03-16T06:05:11;8.10;;;1.90;;
5867;SDS011;2960;49.142;7.768;2023-03-16T06:07:38;8.50;;;2.20;;
5867;SDS011;2960;49.142;7.768;2023-03-16T06:10:06;8.63;;;2.13;;
5867;SDS011;2960;49.142;7.768;2023-03-16T06:12:36;7.83;;;1.80;;
5867;SDS011;2960;49.142;7.768;2023-03-16T06:15:05;7.13;;;1.87;;
5867;SDS011;2960;49.142;7.768;2023-03-16T06:17:34;7.30;;;1.90;;
5867;SDS011;2960;49.142;7.768;2023-03-16T06:20:03;7.70;;;2.30;;
5867;SDS011;2960;49.142;7.768;2023-03-16T06:22:35;8.37;;;2.07;;
5867;SDS011;2960;49.142;7.768;2023-03-16T06:25:03;7.47;;;2.13;;
5867;SDS011;2960;49.142;7.768;2023-03-16T06:27:31;7.37;;;2.20;;
5867;SDS011;2960;49.142;7.768;2023-03-16T06:30:00;7.80;;;2.30;;
5867;SDS011;2960;49.142;7.768;2023-03-16T06:32:30;8.60;;;2.50;;
5867;SDS011;2960;49.142;7.768;2023-03-16T06:34:57;7.57;;;2.30;;
5867;SDS011;2960;49.142;7.768;2023-03-16T06:37:26;7.77;;;2.27;;
5867;SDS011;2960;49.142;7.768;2023-03-16T06:39:53;7.83;;;2.50;;
5867;SDS011;2960;49.142;7.768;2023-03-16T06:42:20;8.43;;;2.70;;
5867;SDS011;2960;49.142;7.768;2023-03-16T06:44:48;8.70;;;2.50;;
5867;SDS011;2960;49.142;7.768;2023-03-16T06:47:16;8.13;;;2.53;;
5867;SDS011;2960;49.142;7.768;2023-03-16T06:49:43;8.00;;;2.40;;
5867;SDS011;2960;49.142;7.768;2023-03-16T06:52:12;8.07;;;2.53;;
5867;SDS011;2960;49.142;7.768;2023-03-16T06:54:39;8.23;;;2.37;;
5867;SDS011;2960;49.142;7.768;2023-03-16T06:57:06;8.20;;;2.90;;
5867;SDS011;2960;49.142;7.768;2023-03-16T06:59:34;7.63;;;2.50;;
5867;SDS011;2960;49.142;7.768;2023-03-16T07:02:01;7.87;;;2.50;;
5867;SDS011;2960;49.142;7.768;2023-03-16T07:04:29;8.73;;;2.80;;
5867;SDS011;2960;49.142;7.768;2023-03-16T07:06:58;7.53;;;2.30;;
5867;SDS011;2960;49.142;7.768;2023-03-16T07:09:25;8.27;;;2.80;;
5867;SDS011;2960;49.142;7.768;2023-03-16T07:11:52;8.60;;;2.90;;
5867;SDS011;2960;49.142;7.768;2023-03-16T07:14:19;8.87;;;3.27;;
5867;SDS011;2960;49.142;7.768;2023-03-16T07:16:47;10.47;;;3.00;;
5867;SDS011;2960;49.142;7.768;2023-03-16T07:19:14;8.33;;;2.90;;
5867;SDS011;2960;49.142;7.768;2023-03-16T07:21:43;8.90;;;3.27;;
5867;SDS011;2960;49.142;7.768;2023-03-16T07:24:10;10.10;;;3.30;;
5867;SDS011;2960;49.142;7.768;2023-03-16T07:26:37;9.50;;;3.30;;
5867;SDS011;2960;49.142;7.768;2023-03-16T07:29:05;8.67;;;3.10;;
5867;SDS011;2960;49.142;7.768;2023-03-16T07:31:33;9.40;;;3.53;;
5867;SDS011;2960;49.142;7.768;2023-03-16T07:34:02;8.23;;;3.03;;
5867;SDS011;2960;49.142;7.768;2023-03-16T07:36:29;8.40;;;3.23;;
5867;SDS011;2960;49.142;7.768;2023-03-16T07:38:58;10.67;;;3.30;;
5867;SDS011;2960;49.142;7.768;2023-03-16T07:41:25;8.07;;;2.70;;
5867;SDS011;2960;49.142;7.768;2023-03-16T07:43:52;8.90;;;3.30;;
5867;SDS011;2960;49.142;7.768;2023-03-16T07:46:22;8.90;;;3.33;;
5867;SDS011;2960;49.142;7.768;2023-03-16T07:48:49;10.00;;;3.60;;
5867;SDS011;2960;49.142;7.768;2023-03-16T07:51:16;9.20;;;3.10;;
5867;SDS011;2960;49.142;7.768;2023-03-16T07:53:43;9.57;;;3.60;;
5867;SDS011;2960;49.142;7.768;2023-03-16T07:56:12;8.40;;;2.83;;
5867;SDS011;2960;49.142;7.768;2023-03-16T07:58:39;9.03;;;3.17;;
5867;SDS011;2960;49.142;7.768;2023-03-16T08:01:06;10.77;;;3.47;;
5867;SDS011;2960;49.142;7.768;2023-03-16T08:03:35;9.23;;;3.10;;
5867;SDS011;2960;49.142;7.768;2023-03-16T08:06:02;9.70;;;2.93;;
5867;SDS011;2960;49.142;7.768;2023-03-16T08:08:29;9.80;;;3.40;;
5867;SDS011;2960;49.142;7.768;2023-03-16T08:10:57;9.40;;;3.20;;
5867;SDS011;2960;49.142;7.768;2023-03-16T08:13:26;9.37;;;3.50;;
5867;SDS011;2960;49.142;7.768;2023-03-16T08:15:54;8.93;;;2.97;;
5867;SDS011;2960;49.142;7.768;2023-03-16T08:18:26;9.40;;;3.27;;
5867;SDS011;2960;49.142;7.768;2023-03-16T08:20:54;10.50;;;3.70;;
5867;SDS011;2960;49.142;7.768;2023-03-16T08:23:23;9.30;;;3.37;;
5867;SDS011;2960;49.142;7.768;2023-03-16T08:25:50;11.10;;;3.73;;
5867;SDS011;2960;49.142;7.768;2023-03-16T08:28:18;9.90;;;3.57;;
5867;SDS011;2960;49.142;7.768;2023-03-16T08:30:48;11.03;;;4.37;;
5867;SDS011;2960;49.142;7.768;2023-03-16T08:33:18;10.40;;;3.70;;
5867;SDS011;2960;49.142;7.768;2023-03-16T08:35:46;11.00;;;3.93;;
5867;SDS011;2960;49.142;7.768;2023-03-16T08:38:14;9.97;;;3.90;;
5867;SDS011;2960;49.142;7.768;2023-03-16T08:40:41;10.07;;;3.93;;
5867;SDS011;2960;49.142;7.768;2023-03-16T08:43:12;11.17;;;4.40;;
5867;SDS011;2960;49.142;7.768;2023-03-16T08:45:39;9.97;;;3.80;;
5867;SDS011;2960;49.142;7.768;2023-03-16T08:48:11;10.70;;;4.17;;
5867;SDS011;2960;49.142;7.768;2023-03-16T08:50:39;11.40;;;4.60;;
5867;SDS011;2960;49.142;7.768;2023-03-16T08:53:07;12.27;;;4.20;;
5867;SDS011;2960;49.142;7.768;2023-03-16T08:55:34;11.80;;;4.27;;
5867;SDS011;2960;49.142;7.768;2023-03-16T08:58:02;10.80;;;4.50;;
5867;SDS011;2960;49.142;7.768;2023-03-16T09:00:29;11.63;;;4.80;;
5867;SDS011;2960;49.142;7.768;2023-03-16T09:02:57;11.07;;;4.33;;
5867;SDS011;2960;49.142;7.768;2023-03-16T09:05:26;10.77;;;4.20;;
5867;SDS011;2960;49.142;7.768;2023-03-16T09:07:53;11.03;;;4.70;;
5867;SDS011;2960;49.142;7.768;2023-03-16T09:10:20;12.37;;;5.30;;
5867;SDS011;2960;49.142;7.768;2023-03-16T09:12:51;11.73;;;4.50;;
5867;SDS011;2960;49.142;7.768;2023-03-16T09:15:19;11.23;;;4.40;;
5867;SDS011;2960;49.142;7.768;2023-03-16T09:17:47;10.80;;;4.70;;
5867;SDS011;2960;49.142;7.768;2023-03-16T09:22:46;11.77;;;4.10;;
5867;SDS011;2960;49.142;7.768;2023-03-16T09:25:13;11.60;;;4.67;;
5867;SDS011;2960;49.142;7.768;2023-03-16T09:27:40;10.67;;;4.23;;
5867;SDS011;2960;49.142;7.768;2023-03-16T09:30:09;11.30;;;4.60;;
5867;SDS011;2960;49.142;7.768;2023-03-16T09:32:37;10.97;;;4.60;;
5867;SDS011;2960;49.142;7.768;2023-03-16T09:35:04;11.17;;;4.47;;
5867;SDS011;2960;49.142;7.768;2023-03-16T09:37:32;11.57;;;5.10;;
5867;SDS011;2960;49.142;7.768;2023-03-16T09:40:01;11.93;;;5.20;;
5867;SDS011;2960;49.142;7.768;2023-03-16T09:42:32;12.10;;;5.20;;
5867;SDS011;2960;49.142;7.768;2023-03-16T09:45:05;11.57;;;5.30;;
5867;SDS011;2960;49.142;7.768;2023-03-16T09:47:40;11.63;;;5.20;;
5867;SDS011;2960;49.142;7.768;2023-03-16T09:50:11;11.80;;;5.30;;
5867;SDS011;2960;49.142;7.768;2023-03-16T09:52:45;12.10;;;5.03;;
5867;SDS011;2960;49.142;7.768;2023-03-16T10:05:54;11.20;;;4.70;;
5867;SDS011;2960;49.142;7.768;2023-03-16T10:08:29;12.70;;;5.03;;
5867;SDS011;2960;49.142;7.768;2023-03-16T10:11:25;12.10;;;4.93;;
5867;SDS011;2960;49.142;7.768;2023-03-16T10:13:58;11.83;;;5.30;;
5867;SDS011;2960;49.142;7.768;2023-03-16T10:16:38;11.33;;;4.60;;
5867;SDS011;2960;49.142;7.768;2023-03-16T10:19:12;11.67;;;5.03;;
5867;SDS011;2960;49.142;7.768;2023-03-16T10:21:44;11.70;;;5.10;;
5867;SDS011;2960;49.142;7.768;2023-03-16T10:24:16;11.20;;;5.17;;
5867;SDS011;2960;49.142;7.768;2023-03-16T10:26:53;11.17;;;4.47;;
5867;SDS011;2960;49.142;7.768;2023-03-16T10:29:24;11.77;;;4.90;;
5867;SDS011;2960;49.142;7.768;2023-03-16T10:31:54;11.20;;;5.00;;
5867;SDS011;2960;49.142;7.768;2023-03-16T10:34:30;12.00;;;4.90;;
5867;SDS011;2960;49.142;7.768;2023-03-16T10:36:59;11.90;;;4.97;;
5867;SDS011;2960;49.142;7.768;2023-03-16T10:39:34;11.30;;;4.83;;
5867;SDS011;2960;49.142;7.768;2023-03-16T10:42:08;12.27;;;4.83;;
5867;SDS011;2960;49.142;7.768;2023-03-16T10:44:42;11.07;;;4.70;;
5867;SDS011;2960;49.142;7.768;2023-03-16T10:47:20;11.20;;;4.70;;
5867;SDS011;2960;49.142;7.768;2023-03-16T10:49:49;11.73;;;4.90;;
5867;SDS011;2960;49.142;7.768;2023-03-16T10:52:21;11.20;;;4.50;;
5867;SDS011;2960;49.142;7.768;2023-03-16T10:54:59;12.43;;;4.90;;
5867;SDS011;2960;49.142;7.768;2023-03-16T10:57:32;11.80;;;6.10;;
5867;SDS011;2960;49.142;7.768;2023-03-16T11:00:04;12.03;;;6.10;;
5867;SDS011;2960;49.142;7.768;2023-03-16T11:02:40;12.63;;;6.43;;
5867;SDS011;2960;49.142;7.768;2023-03-16T11:05:12;11.87;;;6.30;;
5867;SDS011;2960;49.142;7.768;2023-03-16T11:07:46;12.10;;;6.20;;
5867;SDS011;2960;49.142;7.768;2023-03-16T11:10:23;11.67;;;6.20;;
5867;SDS011;2960;49.142;7.768;2023-03-16T11:12:59;12.03;;;6.00;;
5867;SDS011;2960;49.142;7.768;2023-03-16T11:15:32;11.63;;;5.90;;
5867;SDS011;2960;49.142;7.768;2023-03-16T11:18:07;11.70;;;6.13;;
5867;SDS011;2960;49.142;7.768;2023-03-16T11:20:44;12.10;;;6.37;;
5867;SDS011;2960;49.142;7.768;2023-03-16T11:23:12;11.73;;;6.20;;
5867;SDS011;2960;49.142;7.768;2023-03-16T11:25:43;12.20;;;6.60;;
5867;SDS011;2960;49.142;7.768;2023-03-16T11:28:16;11.63;;;6.10;;
5867;SDS011;2960;49.142;7.768;2023-03-16T11:30:52;11.43;;;5.80;;
5867;SDS011;2960;49.142;7.768;2023-03-16T11:33:30;11.50;;;5.70;;
5867;SDS011;2960;49.142;7.768;2023-03-16T11:36:00;11.30;;;5.50;;
5867;SDS011;2960;49.142;7.768;2023-03-16T11:38:44;11.67;;;5.80;;
5867;SDS011;2960;49.142;7.768;2023-03-16T11:41:24;11.77;;;6.00;;
5867;SDS011;2960;49.142;7.768;2023-03-16T11:44:02;11.17;;;5.27;;
5867;SDS011;2960;49.142;7.768;2023-03-16T11:46:39;11.27;;;5.50;;
5867;SDS011;2960;49.142;7.768;2023-03-16T11:49:23;12.00;;;5.83;;
5867;SDS011;2960;49.142;7.768;2023-03-16T11:52:08;11.27;;;5.60;;
5867;SDS011;2960;49.142;7.768;2023-03-16T11:54:45;11.77;;;5.90;;
5867;SDS011;2960;49.142;7.768;2023-03-16T11:57:32;11.67;;;5.90;;
5867;SDS011;2960;49.142;7.768;2023-03-16T12:00:13;11.70;;;6.20;;
5867;SDS011;2960;49.142;7.768;2023-03-16T12:05:58;11.60;;;5.70;;
5867;SDS011;2960;49.142;7.768;2023-03-16T12:08:35;11.77;;;5.90;;
5867;SDS011;2960;49.142;7.768;2023-03-16T12:11:37;11.20;;;5.80;;
5867;SDS011;2960;49.142;7.768;2023-03-16T12:14:15;11.33;;;5.83;;
5867;SDS011;2960;49.142;7.768;2023-03-16T12:16:51;11.40;;;5.70;;
5867;SDS011;2960;49.142;7.768;2023-03-16T12:19:23;11.80;;;5.80;;
5867;SDS011;2960;49.142;7.768;2023-03-16T12:22:06;11.10;;;5.60;;
5867;SDS011;2960;49.142;7.768;2023-03-16T12:24:43;11.07;;;5.50;;
5867;SDS011;2960;49.142;7.768;2023-03-16T12:27:13;11.20;;;5.70;;
5867;SDS011;2960;49.142;7.768;2023-03-16T12:29:45;11.43;;;5.83;;
5867;SDS011;2960;49.142;7.768;2023-03-16T12:32:26;11.60;;;6.10;;
5867;SDS011;2960;49.142;7.768;2023-03-16T12:35:08;12.40;;;5.87;;
5867;SDS011;2960;49.142;7.768;2023-03-16T12:37:52;11.10;;;5.70;;
5867;SDS011;2960;49.142;7.768;2023-03-16T12:41:01;11.23;;;5.83;;
5867;SDS011;2960;49.142;7.768;2023-03-16T12:43:59;11.07;;;5.70;;
5867;SDS011;2960;49.142;7.768;2023-03-16T12:46:38;11.40;;;6.00;;
5867;SDS011;2960;49.142;7.768;2023-03-16T12:49:16;11.00;;;5.50;;
5867;SDS011;2960;49.142;7.768;2023-03-16T12:51:45;11.23;;;5.77;;
5867;SDS011;2960;49.142;7.768;2023-03-16T12:54:21;11.07;;;5.67;;
5867;SDS011;2960;49.142;7.768;2023-03-16T12:56:50;11.00;;;5.70;;
5867;SDS011;2960;49.142;7.768;2023-03-16T12:59:21;10.93;;;5.60;;
5867;SDS011;2960;49.142;7.768;2023-03-16T13:01:50;11.00;;;5.57;;
5867;SDS011;2960;49.142;7.768;2023-03-16T13:04:23;11.43;;;5.50;;
5867;SDS011;2960;49.142;7.768;2023-03-16T13:07:00;11.03;;;5.60;;
5867;SDS011;2960;49.142;7.768;2023-03-16T13:09:33;11.30;;;5.70;;
5867;SDS011;2960;49.142;7.768;2023-03-16T13:12:06;11.20;;;5.70;;
5867;SDS011;2960;49.142;7.768;2023-03-16T13:14:36;11.30;;;5.47;;
5867;SDS011;2960;49.142;7.768;2023-03-16T13:17:20;10.97;;;5.73;;
5867;SDS011;2960;49.142;7.768;2023-03-16T13:19:57;12.37;;;5.53;;
5867;SDS011;2960;49.142;7.768;2023-03-16T13:22:50;11.20;;;5.57;;
5867;SDS011;2960;49.142;7.768;2023-03-16T13:25:46;11.10;;;5.50;;
5867;SDS011;2960;49.142;7.768;2023-03-16T13:28:31;11.27;;;5.90;;
5867;SDS011;2960;49.142;7.768;2023-03-16T13:31:01;11.50;;;6.17;;
5867;SDS011;2960;49.142;7.768;2023-03-16T13:33:32;11.20;;;5.30;;
5867;SDS011;2960;49.142;7.768;2023-03-16T13:36:02;11.30;;;5.13;;
5867;SDS011;2960;49.142;7.768;2023-03-16T13:38:31;12.03;;;5.77;;
5867;SDS011;2960;49.142;7.768;2023-03-16T13:41:02;11.10;;;5.43;;
5867;SDS011;2960;49.142;7.768;2023-03-16T13:43:37;11.40;;;5.83;;
5867;SDS011;2960;49.142;7.768;2023-03-16T13:46:14;11.17;;;5.47;;
5867;SDS011;2960;49.142;7.768;2023-03-16T13:48:42;11.13;;;5.47;;
5867;SDS011;2960;49.142;7.768;2023-03-16T13:51:12;11.00;;;5.60;;
5867;SDS011;2960;49.142;7.768;2023-03-16T13:53:42;11.20;;;5.60;;
5867;SDS011;2960;49.142;7.768;2023-03-16T13:56:13;10.77;;;5.20;;
5867;SDS011;2960;49.142;7.768;2023-03-16T13:58:43;11.17;;;5.50;;
5867;SDS011;2960;49.142;7.768;2023-03-16T14:01:16;11.47;;;5.50;;
5867;SDS011;2960;49.142;7.768;2023-03-16T14:03:50;11.97;;;5.80;;
5867;SDS011;2960;49.142;7.768;2023-03-16T14:06:20;11.33;;;5.87;;
5867;SDS011;2960;49.142;7.768;2023-03-16T14:08:51;11.80;;;5.27;;
5867;SDS011;2960;49.142;7.768;2023-03-16T14:11:24;10.87;;;5.50;;
5867;SDS011;2960;49.142;7.768;2023-03-16T14:13:52;11.57;;;5.70;;
5867;SDS011;2960;49.142;7.768;2023-03-16T14:16:21;11.20;;;5.63;;
5867;SDS011;2960;49.142;7.768;2023-03-16T14:18:52;10.90;;;5.23;;
5867;SDS011;2960;49.142;7.768;2023-03-16T14:21:24;11.20;;;5.33;;
5867;SDS011;2960;49.142;7.768;2023-03-16T14:23:53;10.77;;;5.10;;
5867;SDS011;2960;49.142;7.768;2023-03-16T14:26:25;12.70;;;5.10;;
5867;SDS011;2960;49.142;7.768;2023-03-16T14:28:53;11.00;;;5.00;;
5867;SDS011;2960;49.142;7.768;2023-03-16T14:31:31;10.97;;;5.00;;
5867;SDS011;2960;49.142;7.768;2023-03-16T14:34:02;10.90;;;5.30;;
5867;SDS011;2960;49.142;7.768;2023-03-16T14:36:33;10.87;;;5.10;;
5867;SDS011;2960;49.142;7.768;2023-03-16T14:39:08;10.73;;;5.20;;
5867;SDS011;2960;49.142;7.768;2023-03-16T14:41:39;10.90;;;5.07;;
5867;SDS011;2960;49.142;7.768;2023-03-16T14:44:14;10.67;;;5.30;;
5867;SDS011;2960;49.142;7.768;2023-03-16T14:46:46;11.00;;;5.10;;
5867;SDS011;2960;49.142;7.768;2023-03-16T14:49:19;10.60;;;5.00;;
5867;SDS011;2960;49.142;7.768;2023-03-16T14:51:48;10.77;;;5.17;;
5867;SDS011;2960;49.142;7.768;2023-03-16T14:54:20;11.73;;;5.20;;
5867;SDS011;2960;49.142;7.768;2023-03-16T14:56:50;10.90;;;5.13;;
5867;SDS011;2960;49.142;7.768;2023-03-16T14:59:19;12.27;;;5.53;;
5867;SDS011;2960;49.142;7.768;2023-03-16T15:01:47;11.47;;;5.37;;
5867;SDS011;2960;49.142;7.768;2023-03-16T15:04:16;11.20;;;5.50;;
5867;SDS011;2960;49.142;7.768;2023-03-16T15:06:47;10.97;;;5.40;;
5867;SDS011;2960;49.142;7.768;2023-03-16T15:09:18;11.30;;;5.40;;
5867;SDS011;2960;49.142;7.768;2023-03-16T15:11:58;10.83;;;5.40;;
5867;SDS011;2960;49.142;7.768;2023-03-16T15:14:25;10.53;;;4.60;;
5867;SDS011;2960;49.142;7.768;2023-03-16T15:17:10;11.30;;;5.50;;
5867;SDS011;2960;49.142;7.768;2023-03-16T15:19:37;10.80;;;5.10;;
5867;SDS011;2960;49.142;7.768;2023-03-16T15:22:05;11.63;;;4.90;;
5867;SDS011;2960;49.142;7.768;2023-03-16T15:24:32;10.90;;;5.30;;
5867;SDS011;2960;49.142;7.768;2023-03-16T15:27:01;11.10;;;5.40;;
5867;SDS011;2960;49.142;7.768;2023-03-16T15:29:28;10.70;;;5.00;;
5867;SDS011;2960;49.142;7.768;2023-03-16T15:31:55;10.63;;;5.17;;
5867;SDS011;2960;49.142;7.768;2023-03-16T15:34:22;10.50;;;5.10;;
5867;SDS011;2960;49.142;7.768;2023-03-16T15:36:51;10.77;;;5.43;;
5867;SDS011;2960;49.142;7.768;2023-03-16T15:39:20;10.70;;;5.23;;
5867;SDS011;2960;49.142;7.768;2023-03-16T15:41:49;10.47;;;5.10;;
5867;SDS011;2960;49.142;7.768;2023-03-16T15:44:18;10.70;;;5.33;;